sensor_id;sensor_type;location;lat;lon;timestamp;temperature;humidity
17988;DHT22;9119;50.932;5.342;2023-05-19T00:01:31;12.00;99.90
17988;DHT22;9119;50.932;5.342;2023-05-19T00:03:59;12.00;99.90
17988;DHT22;9119;50.932;5.342;2023-05-19T00:06:30;12.00;99.90
17988;DHT22;9119;50.932;5.342;2023-05-19T00:09:02;12.00;99.90
17988;DHT22;9119;50.932;5.342;2023-05-19T00:11:28;12.10;99.90
17988;DHT22;9119;50.932;5.342;2023-05-19T00:13:56;12.00;99.90
17988;DHT22;9119;50.932;5.342;2023-05-19T00:16:24;12.10;99.90
17988;DHT22;9119;50.932;5.342;2023-05-19T00:18:50;12.10;99.90
17988;DHT22;9119;50.932;5.342;2023-05-19T00:21:16;12.10;99.90
17988;DHT22;9119;50.932;5.342;2023-05-19T00:23:42;12.10;99.90
17988;DHT22;9119;50.932;5.342;2023-05-19T00:26:08;12.10;99.90
17988;DHT22;9119;50.932;5.342;2023-05-19T00:28:34;12.00;99.90
17988;DHT22;9119;50.932;5.342;2023-05-19T00:30:59;12.00;99.90
17988;DHT22;9119;50.932;5.342;2023-05-19T00:33:26;12.00;99.90
17988;DHT22;9119;50.932;5.342;2023-05-19T00:35:52;11.90;99.90
17988;DHT22;9119;50.932;5.342;2023-05-19T00:38:18;11.90;99.90
17988;DHT22;9119;50.932;5.342;2023-05-19T00:40:44;11.90;99.90
17988;DHT22;9119;50.932;5.342;2023-05-19T00:43:10;11.80;99.90
17988;DHT22;9119;50.932;5.342;2023-05-19T00:45:35;11.80;99.90
17988;DHT22;9119;50.932;5.342;2023-05-19T00:48:01;11.70;99.90
17988;DHT22;9119;50.932;5.342;2023-05-19T00:50:27;11.70;99.90
17988;DHT22;9119;50.932;5.342;2023-05-19T00:52:56;11.60;99.90
17988;DHT22;9119;50.932;5.342;2023-05-19T00:55:26;11.40;99.90
17988;DHT22;9119;50.932;5.342;2023-05-19T00:57:53;11.40;99.90
17988;DHT22;9119;50.932;5.342;2023-05-19T01:00:20;11.40;99.90
17988;DHT22;9119;50.932;5.342;2023-05-19T01:02:46;11.50;99.90
17988;DHT22;9119;50.932;5.342;2023-05-19T01:05:12;11.40;99.90
17988;DHT22;9119;50.932;5.342;2023-05-19T01:07:38;11.50;99.90
17988;DHT22;9119;50.932;5.342;2023-05-19T01:10:04;11.40;99.90
17988;DHT22;9119;50.932;5.342;2023-05-19T01:12:31;11.40;99.90
17988;DHT22;9119;50.932;5.342;2023-05-19T01:14:57;11.40;99.90
17988;DHT22;9119;50.932;5.342;2023-05-19T01:17:40;11.30;99.90
17988;DHT22;9119;50.932;5.342;2023-05-19T01:20:26;11.30;99.90
17988;DHT22;9119;50.932;5.342;2023-05-19T01:23:38;11.30;99.90
17988;DHT22;9119;50.932;5.342;2023-05-19T01:26:18;11.30;99.90
17988;DHT22;9119;50.932;5.342;2023-05-19T01:31:45;11.00;99.90
17988;DHT22;9119;50.932;5.342;2023-05-19T01:34:13;10.90;99.90
17988;DHT22;9119;50.932;5.342;2023-05-19T01:36:40;10.90;99.90
17988;DHT22;9119;50.932;5.342;2023-05-19T01:39:09;10.90;99.90
17988;DHT22;9119;50.932;5.342;2023-05-19T01:41:36;10.70;99.90
17988;DHT22;9119;50.932;5.342;2023-05-19T01:44:02;10.70;99.90
17988;DHT22;9119;50.932;5.342;2023-05-19T01:46:28;10.70;99.90
17988;DHT22;9119;50.932;5.342;2023-05-19T01:48:54;10.70;99.90
17988;DHT22;9119;50.932;5.342;2023-05-19T01:51:20;10.70;99.90
17988;DHT22;9119;50.932;5.342;2023-05-19T01:53:46;10.70;99.90
17988;DHT22;9119;50.932;5.342;2023-05-19T01:56:15;10.80;99.90
17988;DHT22;9119;50.932;5.342;2023-05-19T01:58:57;10.80;99.90
17988;DHT22;9119;50.932;5.342;2023-05-19T02:01:44;10.80;99.90
17988;DHT22;9119;50.932;5.342;2023-05-19T02:04:35;10.70;99.90
17988;DHT22;9119;50.932;5.342;2023-05-19T02:07:25;10.70;99.90
17988;DHT22;9119;50.932;5.342;2023-05-19T02:10:09;10.70;99.90
17988;DHT22;9119;50.932;5.342;2023-05-19T02:12:37;10.70;99.90
17988;DHT22;9119;50.932;5.342;2023-05-19T02:15:16;10.60;99.90
17988;DHT22;9119;50.932;5.342;2023-05-19T02:17:44;10.60;99.90
17988;DHT22;9119;50.932;5.342;2023-05-19T02:20:16;10.60;99.90
17988;DHT22;9119;50.932;5.342;2023-05-19T02:22:42;10.50;99.90
17988;DHT22;9119;50.932;5.342;2023-05-19T02:25:08;10.50;99.90
17988;DHT22;9119;50.932;5.342;2023-05-19T02:27:36;10.30;99.90
17988;DHT22;9119;50.932;5.342;2023-05-19T02:30:03;10.30;99.90
17988;DHT22;9119;50.932;5.342;2023-05-19T02:32:28;10.20;99.90
17988;DHT22;9119;50.932;5.342;2023-05-19T02:34:55;10.20;99.90
17988;DHT22;9119;50.932;5.342;2023-05-19T02:37:21;10.20;99.90
17988;DHT22;9119;50.932;5.342;2023-05-19T02:39:49;10.20;99.90
17988;DHT22;9119;50.932;5.342;2023-05-19T02:42:14;10.20;99.90
17988;DHT22;9119;50.932;5.342;2023-05-19T02:44:42;10.30;99.90
17988;DHT22;9119;50.932;5.342;2023-05-19T02:47:08;10.30;99.90
17988;DHT22;9119;50.932;5.342;2023-05-19T02:49:34;10.30;99.90
17988;DHT22;9119;50.932;5.342;2023-05-19T02:52:04;10.40;99.90
17988;DHT22;9119;50.932;5.342;2023-05-19T02:54:30;10.40;99.90
17988;DHT22;9119;50.932;5.342;2023-05-19T02:56:56;10.40;99.90
17988;DHT22;9119;50.932;5.342;2023-05-19T02:59:22;10.30;99.90
17988;DHT22;9119;50.932;5.342;2023-05-19T03:01:48;10.30;99.90
17988;DHT22;9119;50.932;5.342;2023-05-19T03:04:13;10.30;99.90
17988;DHT22;9119;50.932;5.342;2023-05-19T03:06:39;10.40;99.90
17988;DHT22;9119;50.932;5.342;2023-05-19T03:09:06;10.30;99.90
17988;DHT22;9119;50.932;5.342;2023-05-19T03:11:32;10.40;99.90
17988;DHT22;9119;50.932;5.342;2023-05-19T03:13:58;10.40;99.90
17988;DHT22;9119;50.932;5.342;2023-05-19T03:16:24;10.40;99.90
17988;DHT22;9119;50.932;5.342;2023-05-19T03:18:50;10.40;99.90
17988;DHT22;9119;50.932;5.342;2023-05-19T03:21:15;10.40;99.90
17988;DHT22;9119;50.932;5.342;2023-05-19T03:23:41;10.40;99.90
17988;DHT22;9119;50.932;5.342;2023-05-19T03:26:07;10.30;99.90
17988;DHT22;9119;50.932;5.342;2023-05-19T03:28:32;10.30;99.90
17988;DHT22;9119;50.932;5.342;2023-05-19T03:30:58;10.20;99.90
17988;DHT22;9119;50.932;5.342;2023-05-19T03:33:24;10.20;99.90
17988;DHT22;9119;50.932;5.342;2023-05-19T03:35:52;10.00;99.90
17988;DHT22;9119;50.932;5.342;2023-05-19T03:38:17;9.80;99.90
17988;DHT22;9119;50.932;5.342;2023-05-19T03:40:43;9.70;99.90
17988;DHT22;9119;50.932;5.342;2023-05-19T03:43:09;9.60;99.90
17988;DHT22;9119;50.932;5.342;2023-05-19T03:45:35;9.50;99.90
17988;DHT22;9119;50.932;5.342;2023-05-19T03:48:00;9.50;99.90
17988;DHT22;9119;50.932;5.342;2023-05-19T03:50:26;9.40;99.90
17988;DHT22;9119;50.932;5.342;2023-05-19T03:52:53;9.30;99.90
17988;DHT22;9119;50.932;5.342;2023-05-19T03:55:19;9.30;99.90
17988;DHT22;9119;50.932;5.342;2023-05-19T03:57:46;9.20;99.90
17988;DHT22;9119;50.932;5.342;2023-05-19T04:00:12;9.20;99.90
17988;DHT22;9119;50.932;5.342;2023-05-19T04:02:38;9.30;99.90
17988;DHT22;9119;50.932;5.342;2023-05-19T04:05:04;9.30;99.90
17988;DHT22;9119;50.932;5.342;2023-05-19T04:07:30;9.40;99.90
17988;DHT22;9119;50.932;5.342;2023-05-19T04:09:56;9.30;99.90
17988;DHT22;9119;50.932;5.342;2023-05-19T04:12:22;9.30;99.90
17988;DHT22;9119;50.932;5.342;2023-05-19T04:14:48;9.30;99.90
17988;DHT22;9119;50.932;5.342;2023-05-19T04:17:13;9.30;99.90
17988;DHT22;9119;50.932;5.342;2023-05-19T04:19:39;9.30;99.90
17988;DHT22;9119;50.932;5.342;2023-05-19T04:22:05;9.30;99.90
17988;DHT22;9119;50.932;5.342;2023-05-19T04:24:31;9.30;99.90
17988;DHT22;9119;50.932;5.342;2023-05-19T04:26:58;9.30;99.90
17988;DHT22;9119;50.932;5.342;2023-05-19T04:29:30;9.40;99.90
17988;DHT22;9119;50.932;5.342;2023-05-19T04:31:56;9.40;99.90
17988;DHT22;9119;50.932;5.342;2023-05-19T04:34:22;9.50;99.90
17988;DHT22;9119;50.932;5.342;2023-05-19T04:36:48;9.50;99.90
17988;DHT22;9119;50.932;5.342;2023-05-19T04:39:13;9.50;99.90
17988;DHT22;9119;50.932;5.342;2023-05-19T04:41:40;9.50;99.90
17988;DHT22;9119;50.932;5.342;2023-05-19T04:44:06;9.50;99.90
17988;DHT22;9119;50.932;5.342;2023-05-19T04:46:33;9.60;99.90
17988;DHT22;9119;50.932;5.342;2023-05-19T04:48:59;9.60;99.90
17988;DHT22;9119;50.932;5.342;2023-05-19T04:51:28;9.70;99.90
17988;DHT22;9119;50.932;5.342;2023-05-19T04:53:56;9.70;99.90
17988;DHT22;9119;50.932;5.342;2023-05-19T04:56:22;9.80;99.90
17988;DHT22;9119;50.932;5.342;2023-05-19T04:58:48;9.90;99.90
17988;DHT22;9119;50.932;5.342;2023-05-19T05:01:14;10.00;99.90
17988;DHT22;9119;50.932;5.342;2023-05-19T05:03:45;10.10;99.90
17988;DHT22;9119;50.932;5.342;2023-05-19T05:06:11;10.10;99.90
17988;DHT22;9119;50.932;5.342;2023-05-19T05:08:37;10.00;99.90
17988;DHT22;9119;50.932;5.342;2023-05-19T05:11:05;10.00;99.90
17988;DHT22;9119;50.932;5.342;2023-05-19T05:13:30;10.00;99.90
17988;DHT22;9119;50.932;5.342;2023-05-19T05:15:56;10.10;99.90
17988;DHT22;9119;50.932;5.342;2023-05-19T05:18:23;10.00;99.90
17988;DHT22;9119;50.932;5.342;2023-05-19T05:20:48;10.10;99.90
17988;DHT22;9119;50.932;5.342;2023-05-19T05:23:14;10.00;99.90
17988;DHT22;9119;50.932;5.342;2023-05-19T05:25:41;10.10;99.90
17988;DHT22;9119;50.932;5.342;2023-05-19T05:28:08;10.20;99.90
17988;DHT22;9119;50.932;5.342;2023-05-19T05:30:34;10.20;99.90
17988;DHT22;9119;50.932;5.342;2023-05-19T05:33:00;10.40;99.90
17988;DHT22;9119;50.932;5.342;2023-05-19T05:35:26;10.50;99.90
17988;DHT22;9119;50.932;5.342;2023-05-19T05:37:52;10.60;99.90
17988;DHT22;9119;50.932;5.342;2023-05-19T05:40:18;10.60;99.90
17988;DHT22;9119;50.932;5.342;2023-05-19T05:42:44;10.60;99.90
17988;DHT22;9119;50.932;5.342;2023-05-19T05:45:10;10.70;99.90
17988;DHT22;9119;50.932;5.342;2023-05-19T05:47:36;10.70;99.90
17988;DHT22;9119;50.932;5.342;2023-05-19T05:50:06;10.90;99.90
17988;DHT22;9119;50.932;5.342;2023-05-19T05:52:33;11.20;99.90
17988;DHT22;9119;50.932;5.342;2023-05-19T05:55:00;11.90;99.90
17988;DHT22;9119;50.932;5.342;2023-05-19T05:57:26;12.20;99.90
17988;DHT22;9119;50.932;5.342;2023-05-19T05:59:55;12.20;99.90
17988;DHT22;9119;50.932;5.342;2023-05-19T06:02:21;12.20;99.90
17988;DHT22;9119;50.932;5.342;2023-05-19T06:04:47;12.10;99.90
17988;DHT22;9119;50.932;5.342;2023-05-19T06:07:13;12.00;99.90
17988;DHT22;9119;50.932;5.342;2023-05-19T06:09:38;12.00;99.90
17988;DHT22;9119;50.932;5.342;2023-05-19T06:12:04;12.10;99.90
17988;DHT22;9119;50.932;5.342;2023-05-19T06:14:31;12.20;99.90
17988;DHT22;9119;50.932;5.342;2023-05-19T06:16:56;12.30;99.90
17988;DHT22;9119;50.932;5.342;2023-05-19T06:19:22;12.10;99.90
17988;DHT22;9119;50.932;5.342;2023-05-19T06:21:50;12.20;99.90
17988;DHT22;9119;50.932;5.342;2023-05-19T06:24:15;12.30;99.90
17988;DHT22;9119;50.932;5.342;2023-05-19T06:26:41;12.10;99.90
17988;DHT22;9119;50.932;5.342;2023-05-19T06:29:07;12.50;99.90
17988;DHT22;9119;50.932;5.342;2023-05-19T06:31:33;12.60;99.90
17988;DHT22;9119;50.932;5.342;2023-05-19T06:33:58;12.70;99.90
17988;DHT22;9119;50.932;5.342;2023-05-19T06:36:24;12.80;99.90
17988;DHT22;9119;50.932;5.342;2023-05-19T06:38:50;12.90;99.90
17988;DHT22;9119;50.932;5.342;2023-05-19T06:41:16;12.80;99.90
17988;DHT22;9119;50.932;5.342;2023-05-19T06:43:42;12.90;99.90
17988;DHT22;9119;50.932;5.342;2023-05-19T06:46:08;13.00;99.90
17988;DHT22;9119;50.932;5.342;2023-05-19T06:48:33;13.10;99.90
17988;DHT22;9119;50.932;5.342;2023-05-19T06:50:59;13.10;99.90
17988;DHT22;9119;50.932;5.342;2023-05-19T06:53:25;13.30;99.90
17988;DHT22;9119;50.932;5.342;2023-05-19T06:55:51;13.60;99.90
17988;DHT22;9119;50.932;5.342;2023-05-19T06:58:17;13.70;99.90
17988;DHT22;9119;50.932;5.342;2023-05-19T07:00:42;13.90;99.90
17988;DHT22;9119;50.932;5.342;2023-05-19T07:03:08;14.10;99.90
17988;DHT22;9119;50.932;5.342;2023-05-19T07:05:34;14.10;99.90
17988;DHT22;9119;50.932;5.342;2023-05-19T07:08:00;14.10;99.90
17988;DHT22;9119;50.932;5.342;2023-05-19T07:10:26;13.90;99.90
17988;DHT22;9119;50.932;5.342;2023-05-19T07:12:52;13.60;99.90
17988;DHT22;9119;50.932;5.342;2023-05-19T07:15:18;13.70;99.90
17988;DHT22;9119;50.932;5.342;2023-05-19T07:17:43;13.80;99.90
17988;DHT22;9119;50.932;5.342;2023-05-19T07:20:09;14.10;99.90
17988;DHT22;9119;50.932;5.342;2023-05-19T07:22:36;14.00;99.90
17988;DHT22;9119;50.932;5.342;2023-05-19T07:25:02;14.00;99.90
17988;DHT22;9119;50.932;5.342;2023-05-19T07:27:28;14.00;99.90
17988;DHT22;9119;50.932;5.342;2023-05-19T07:29:54;14.00;99.90
17988;DHT22;9119;50.932;5.342;2023-05-19T07:32:20;14.40;99.90
17988;DHT22;9119;50.932;5.342;2023-05-19T07:34:45;14.40;99.90
17988;DHT22;9119;50.932;5.342;2023-05-19T07:37:11;14.50;99.90
17988;DHT22;9119;50.932;5.342;2023-05-19T07:39:37;14.60;99.90
17988;DHT22;9119;50.932;5.342;2023-05-19T07:42:03;14.70;99.90
17988;DHT22;9119;50.932;5.342;2023-05-19T07:44:29;14.60;99.90
17988;DHT22;9119;50.932;5.342;2023-05-19T07:46:56;14.60;99.90
17988;DHT22;9119;50.932;5.342;2023-05-19T07:49:22;14.80;99.90
17988;DHT22;9119;50.932;5.342;2023-05-19T07:51:47;15.10;99.90
17988;DHT22;9119;50.932;5.342;2023-05-19T07:54:14;15.10;99.90
17988;DHT22;9119;50.932;5.342;2023-05-19T07:56:42;15.20;99.90
17988;DHT22;9119;50.932;5.342;2023-05-19T07:59:08;15.30;99.90
17988;DHT22;9119;50.932;5.342;2023-05-19T08:01:33;15.30;99.90
17988;DHT22;9119;50.932;5.342;2023-05-19T08:03:59;15.40;99.90
17988;DHT22;9119;50.932;5.342;2023-05-19T08:06:25;15.70;99.90
17988;DHT22;9119;50.932;5.342;2023-05-19T08:08:55;15.80;99.90
17988;DHT22;9119;50.932;5.342;2023-05-19T08:11:21;15.50;99.90
17988;DHT22;9119;50.932;5.342;2023-05-19T08:13:46;15.40;99.90
17988;DHT22;9119;50.932;5.342;2023-05-19T08:16:14;15.50;99.90
17988;DHT22;9119;50.932;5.342;2023-05-19T08:18:40;15.50;99.90
17988;DHT22;9119;50.932;5.342;2023-05-19T08:21:05;15.80;99.90
17988;DHT22;9119;50.932;5.342;2023-05-19T08:23:31;15.80;99.90
17988;DHT22;9119;50.932;5.342;2023-05-19T08:25:58;16.00;99.90
17988;DHT22;9119;50.932;5.342;2023-05-19T08:28:23;16.10;99.90
17988;DHT22;9119;50.932;5.342;2023-05-19T08:30:49;15.80;99.90
17988;DHT22;9119;50.932;5.342;2023-05-19T08:33:17;15.90;99.90
17988;DHT22;9119;50.932;5.342;2023-05-19T08:35:45;16.20;99.90
17988;DHT22;9119;50.932;5.342;2023-05-19T08:38:10;16.30;99.90
17988;DHT22;9119;50.932;5.342;2023-05-19T08:40:36;16.40;99.90
17988;DHT22;9119;50.932;5.342;2023-05-19T08:43:05;16.50;99.90
17988;DHT22;9119;50.932;5.342;2023-05-19T08:45:31;16.40;99.90
17988;DHT22;9119;50.932;5.342;2023-05-19T08:47:59;16.50;99.90
17988;DHT22;9119;50.932;5.342;2023-05-19T08:50:38;16.50;99.90
17988;DHT22;9119;50.932;5.342;2023-05-19T08:53:21;16.60;99.90
17988;DHT22;9119;50.932;5.342;2023-05-19T08:56:17;16.80;99.90
17988;DHT22;9119;50.932;5.342;2023-05-19T08:58:44;17.00;99.90
17988;DHT22;9119;50.932;5.342;2023-05-19T09:01:13;17.10;99.90
17988;DHT22;9119;50.932;5.342;2023-05-19T09:03:42;17.20;99.90
17988;DHT22;9119;50.932;5.342;2023-05-19T09:06:09;17.20;99.90
17988;DHT22;9119;50.932;5.342;2023-05-19T09:08:39;17.30;99.90
17988;DHT22;9119;50.932;5.342;2023-05-19T09:11:05;17.40;99.90
17988;DHT22;9119;50.932;5.342;2023-05-19T09:13:31;17.60;99.90
17988;DHT22;9119;50.932;5.342;2023-05-19T09:15:57;17.70;99.90
17988;DHT22;9119;50.932;5.342;2023-05-19T09:18:24;17.90;99.90
17988;DHT22;9119;50.932;5.342;2023-05-19T09:21:00;18.50;99.90
17988;DHT22;9119;50.932;5.342;2023-05-19T09:23:28;18.50;99.90
17988;DHT22;9119;50.932;5.342;2023-05-19T09:25:55;18.10;99.90
17988;DHT22;9119;50.932;5.342;2023-05-19T09:28:24;18.10;99.90
17988;DHT22;9119;50.932;5.342;2023-05-19T09:31:03;18.10;99.90
17988;DHT22;9119;50.932;5.342;2023-05-19T09:33:29;18.30;99.90
17988;DHT22;9119;50.932;5.342;2023-05-19T09:35:57;18.20;99.90
17988;DHT22;9119;50.932;5.342;2023-05-19T09:38:23;18.30;99.90
17988;DHT22;9119;50.932;5.342;2023-05-19T09:40:54;18.30;99.90
17988;DHT22;9119;50.932;5.342;2023-05-19T09:43:20;18.20;99.90
17988;DHT22;9119;50.932;5.342;2023-05-19T09:45:46;18.20;99.90
17988;DHT22;9119;50.932;5.342;2023-05-19T09:48:13;18.30;99.90
17988;DHT22;9119;50.932;5.342;2023-05-19T09:50:42;18.30;99.90
17988;DHT22;9119;50.932;5.342;2023-05-19T09:53:08;18.30;99.90
17988;DHT22;9119;50.932;5.342;2023-05-19T09:55:36;18.30;99.90
17988;DHT22;9119;50.932;5.342;2023-05-19T09:58:03;18.40;99.90
17988;DHT22;9119;50.932;5.342;2023-05-19T10:00:31;18.60;99.90
17988;DHT22;9119;50.932;5.342;2023-05-19T10:02:57;18.70;99.90
17988;DHT22;9119;50.932;5.342;2023-05-19T10:05:26;18.60;99.90
17988;DHT22;9119;50.932;5.342;2023-05-19T10:07:56;18.90;99.90
17988;DHT22;9119;50.932;5.342;2023-05-19T10:10:22;18.90;99.90
17988;DHT22;9119;50.932;5.342;2023-05-19T10:12:48;19.00;99.90
17988;DHT22;9119;50.932;5.342;2023-05-19T10:15:15;19.30;99.90
17988;DHT22;9119;50.932;5.342;2023-05-19T10:17:43;19.60;99.90
17988;DHT22;9119;50.932;5.342;2023-05-19T10:20:13;20.10;99.90
17988;DHT22;9119;50.932;5.342;2023-05-19T10:22:44;20.00;99.90
17988;DHT22;9119;50.932;5.342;2023-05-19T10:25:11;20.40;99.90
17988;DHT22;9119;50.932;5.342;2023-05-19T10:28:06;21.00;99.90
17988;DHT22;9119;50.932;5.342;2023-05-19T10:30:36;21.20;99.90
17988;DHT22;9119;50.932;5.342;2023-05-19T10:33:06;21.30;99.90
17988;DHT22;9119;50.932;5.342;2023-05-19T10:38:41;21.30;99.90
17988;DHT22;9119;50.932;5.342;2023-05-19T10:41:35;21.40;99.90
17988;DHT22;9119;50.932;5.342;2023-05-19T10:46:56;21.70;99.90
17988;DHT22;9119;50.932;5.342;2023-05-19T10:49:22;21.80;99.90
17988;DHT22;9119;50.932;5.342;2023-05-19T10:51:48;21.90;99.90
17988;DHT22;9119;50.932;5.342;2023-05-19T10:54:14;21.60;99.90
17988;DHT22;9119;50.932;5.342;2023-05-19T10:56:45;21.70;99.90
17988;DHT22;9119;50.932;5.342;2023-05-19T10:59:34;21.70;99.90
17988;DHT22;9119;50.932;5.342;2023-05-19T11:02:03;21.20;99.90
17988;DHT22;9119;50.932;5.342;2023-05-19T11:04:48;21.30;99.90
17988;DHT22;9119;50.932;5.342;2023-05-19T11:07:19;21.70;99.90
17988;DHT22;9119;50.932;5.342;2023-05-19T11:09:50;22.30;99.90
17988;DHT22;9119;50.932;5.342;2023-05-19T11:12:20;22.60;99.90
17988;DHT22;9119;50.932;5.342;2023-05-19T11:14:53;22.60;99.90
17988;DHT22;9119;50.932;5.342;2023-05-19T11:17:19;22.70;99.90
17988;DHT22;9119;50.932;5.342;2023-05-19T11:19:55;23.00;99.90
17988;DHT22;9119;50.932;5.342;2023-05-19T11:22:26;23.20;99.90
17988;DHT22;9119;50.932;5.342;2023-05-19T11:24:53;23.50;99.90
17988;DHT22;9119;50.932;5.342;2023-05-19T11:27:31;22.20;99.90
17988;DHT22;9119;50.932;5.342;2023-05-19T11:30:07;21.10;99.90
17988;DHT22;9119;50.932;5.342;2023-05-19T11:32:35;21.80;99.90
17988;DHT22;9119;50.932;5.342;2023-05-19T11:35:09;22.40;99.90
17988;DHT22;9119;50.932;5.342;2023-05-19T11:37:35;22.90;99.90
17988;DHT22;9119;50.932;5.342;2023-05-19T11:40:02;22.70;99.90
17988;DHT22;9119;50.932;5.342;2023-05-19T11:42:32;22.90;99.90
17988;DHT22;9119;50.932;5.342;2023-05-19T11:44:59;23.60;99.90
17988;DHT22;9119;50.932;5.342;2023-05-19T11:47:26;23.10;99.90
17988;DHT22;9119;50.932;5.342;2023-05-19T11:49:53;22.70;99.90
17988;DHT22;9119;50.932;5.342;2023-05-19T11:52:23;22.50;99.90
17988;DHT22;9119;50.932;5.342;2023-05-19T11:54:49;22.90;99.90
17988;DHT22;9119;50.932;5.342;2023-05-19T11:57:15;23.00;99.90
17988;DHT22;9119;50.932;5.342;2023-05-19T11:59:41;23.30;99.90
17988;DHT22;9119;50.932;5.342;2023-05-19T12:04:47;24.30;99.90
17988;DHT22;9119;50.932;5.342;2023-05-19T12:07:17;24.30;99.90
17988;DHT22;9119;50.932;5.342;2023-05-19T12:09:44;24.50;99.90
17988;DHT22;9119;50.932;5.342;2023-05-19T12:12:15;24.70;99.90
17988;DHT22;9119;50.932;5.342;2023-05-19T12:14:42;24.80;99.90
17988;DHT22;9119;50.932;5.342;2023-05-19T12:17:15;24.30;99.90
17988;DHT22;9119;50.932;5.342;2023-05-19T12:19:45;23.40;99.90
17988;DHT22;9119;50.932;5.342;2023-05-19T12:22:11;23.10;99.90
17988;DHT22;9119;50.932;5.342;2023-05-19T12:24:38;23.20;99.90
17988;DHT22;9119;50.932;5.342;2023-05-19T12:27:24;23.90;99.90
17988;DHT22;9119;50.932;5.342;2023-05-19T12:29:54;24.70;99.90
17988;DHT22;9119;50.932;5.342;2023-05-19T12:32:25;24.20;99.90
17988;DHT22;9119;50.932;5.342;2023-05-19T12:34:54;24.40;99.90
17988;DHT22;9119;50.932;5.342;2023-05-19T12:37:20;24.60;99.90
17988;DHT22;9119;50.932;5.342;2023-05-19T12:39:47;24.90;99.90
17988;DHT22;9119;50.932;5.342;2023-05-19T12:42:14;24.80;99.90
17988;DHT22;9119;50.932;5.342;2023-05-19T12:44:47;25.00;99.90
17988;DHT22;9119;50.932;5.342;2023-05-19T12:47:15;24.80;99.90
17988;DHT22;9119;50.932;5.342;2023-05-19T12:50:04;24.50;99.90
17988;DHT22;9119;50.932;5.342;2023-05-19T12:52:32;24.70;99.90
17988;DHT22;9119;50.932;5.342;2023-05-19T12:55:04;23.90;99.90
17988;DHT22;9119;50.932;5.342;2023-05-19T12:57:33;24.10;99.90
17988;DHT22;9119;50.932;5.342;2023-05-19T13:00:04;24.40;99.90
17988;DHT22;9119;50.932;5.342;2023-05-19T13:02:53;24.50;99.90
17988;DHT22;9119;50.932;5.342;2023-05-19T13:05:20;25.10;99.90
17988;DHT22;9119;50.932;5.342;2023-05-19T13:07:56;24.70;99.90
17988;DHT22;9119;50.932;5.342;2023-05-19T13:10:23;24.70;99.90
17988;DHT22;9119;50.932;5.342;2023-05-19T13:12:52;24.50;99.90
17988;DHT22;9119;50.932;5.342;2023-05-19T13:15:18;24.20;99.90
17988;DHT22;9119;50.932;5.342;2023-05-19T13:17:44;24.10;99.90
17988;DHT22;9119;50.932;5.342;2023-05-19T13:20:12;25.00;99.90
17988;DHT22;9119;50.932;5.342;2023-05-19T13:22:37;25.60;99.90
17988;DHT22;9119;50.932;5.342;2023-05-19T13:25:03;25.20;99.60
17988;DHT22;9119;50.932;5.342;2023-05-19T13:27:29;24.80;99.90
17988;DHT22;9119;50.932;5.342;2023-05-19T13:29:54;24.60;99.90
17988;DHT22;9119;50.932;5.342;2023-05-19T13:32:20;24.80;99.90
17988;DHT22;9119;50.932;5.342;2023-05-19T13:34:46;24.70;99.90
17988;DHT22;9119;50.932;5.342;2023-05-19T13:37:12;24.80;99.90
17988;DHT22;9119;50.932;5.342;2023-05-19T13:39:37;25.00;99.80
17988;DHT22;9119;50.932;5.342;2023-05-19T13:42:05;25.30;99.50
17988;DHT22;9119;50.932;5.342;2023-05-19T13:44:31;25.60;99.30
17988;DHT22;9119;50.932;5.342;2023-05-19T13:46:56;25.20;99.70
17988;DHT22;9119;50.932;5.342;2023-05-19T13:49:22;24.10;99.70
17988;DHT22;9119;50.932;5.342;2023-05-19T13:51:48;23.40;99.40
17988;DHT22;9119;50.932;5.342;2023-05-19T13:54:14;23.20;99.80
17988;DHT22;9119;50.932;5.342;2023-05-19T13:56:40;23.90;99.80
17988;DHT22;9119;50.932;5.342;2023-05-19T13:59:05;24.50;99.80
17988;DHT22;9119;50.932;5.342;2023-05-19T14:01:31;23.70;99.90
17988;DHT22;9119;50.932;5.342;2023-05-19T14:03:57;23.10;99.90
17988;DHT22;9119;50.932;5.342;2023-05-19T14:06:22;23.10;99.90
17988;DHT22;9119;50.932;5.342;2023-05-19T14:08:48;23.10;99.90
17988;DHT22;9119;50.932;5.342;2023-05-19T14:11:18;23.30;99.90
17988;DHT22;9119;50.932;5.342;2023-05-19T14:13:44;23.40;99.90
17988;DHT22;9119;50.932;5.342;2023-05-19T14:16:10;22.60;99.90
17988;DHT22;9119;50.932;5.342;2023-05-19T14:18:36;23.00;99.90
17988;DHT22;9119;50.932;5.342;2023-05-19T14:21:02;23.00;99.90
17988;DHT22;9119;50.932;5.342;2023-05-19T14:23:27;23.50;99.90
17988;DHT22;9119;50.932;5.342;2023-05-19T14:25:54;23.40;99.90
17988;DHT22;9119;50.932;5.342;2023-05-19T14:28:20;23.30;99.90
17988;DHT22;9119;50.932;5.342;2023-05-19T14:30:46;23.60;99.90
17988;DHT22;9119;50.932;5.342;2023-05-19T14:33:12;23.90;99.90
17988;DHT22;9119;50.932;5.342;2023-05-19T14:35:38;23.70;99.90
17988;DHT22;9119;50.932;5.342;2023-05-19T14:38:03;23.60;99.90
17988;DHT22;9119;50.932;5.342;2023-05-19T14:40:29;24.30;99.90
17988;DHT22;9119;50.932;5.342;2023-05-19T14:42:55;24.10;99.90
17988;DHT22;9119;50.932;5.342;2023-05-19T14:45:20;23.90;99.90
17988;DHT22;9119;50.932;5.342;2023-05-19T14:47:46;23.70;99.90
17988;DHT22;9119;50.932;5.342;2023-05-19T14:50:12;23.40;99.90
17988;DHT22;9119;50.932;5.342;2023-05-19T14:52:37;23.90;99.90
17988;DHT22;9119;50.932;5.342;2023-05-19T14:55:03;23.80;99.90
17988;DHT22;9119;50.932;5.342;2023-05-19T14:57:29;23.90;99.90
17988;DHT22;9119;50.932;5.342;2023-05-19T14:59:55;23.80;99.90
17988;DHT22;9119;50.932;5.342;2023-05-19T15:02:21;23.90;99.90
17988;DHT22;9119;50.932;5.342;2023-05-19T15:04:46;24.00;99.90
17988;DHT22;9119;50.932;5.342;2023-05-19T15:07:12;24.60;99.90
17988;DHT22;9119;50.932;5.342;2023-05-19T15:09:38;24.60;99.90
17988;DHT22;9119;50.932;5.342;2023-05-19T15:12:03;24.30;99.90
17988;DHT22;9119;50.932;5.342;2023-05-19T15:14:29;24.00;99.90
17988;DHT22;9119;50.932;5.342;2023-05-19T15:16:55;23.60;99.90
17988;DHT22;9119;50.932;5.342;2023-05-19T15:19:21;23.10;99.90
17988;DHT22;9119;50.932;5.342;2023-05-19T15:21:46;23.30;99.90
17988;DHT22;9119;50.932;5.342;2023-05-19T15:24:14;23.50;99.90
17988;DHT22;9119;50.932;5.342;2023-05-19T15:26:40;23.70;99.90
17988;DHT22;9119;50.932;5.342;2023-05-19T15:29:05;23.80;99.90
17988;DHT22;9119;50.932;5.342;2023-05-19T15:31:31;24.10;99.90
17988;DHT22;9119;50.932;5.342;2023-05-19T15:33:56;23.50;99.90
17988;DHT22;9119;50.932;5.342;2023-05-19T15:36:22;23.20;99.90
17988;DHT22;9119;50.932;5.342;2023-05-19T15:38:48;23.20;99.90
17988;DHT22;9119;50.932;5.342;2023-05-19T15:41:14;23.70;99.90
17988;DHT22;9119;50.932;5.342;2023-05-19T15:43:39;23.40;99.90
17988;DHT22;9119;50.932;5.342;2023-05-19T15:46:05;23.40;99.90
17988;DHT22;9119;50.932;5.342;2023-05-19T15:48:31;23.60;99.90
17988;DHT22;9119;50.932;5.342;2023-05-19T15:50:58;23.70;99.90
17988;DHT22;9119;50.932;5.342;2023-05-19T15:53:24;24.10;99.90
17988;DHT22;9119;50.932;5.342;2023-05-19T15:55:50;24.50;99.90
17988;DHT22;9119;50.932;5.342;2023-05-19T15:58:16;24.80;99.90
17988;DHT22;9119;50.932;5.342;2023-05-19T16:00:42;23.80;99.80
17988;DHT22;9119;50.932;5.342;2023-05-19T16:03:08;23.70;99.90